createdAt,value
2018-11-28T00:02:29.965Z,85.04
2018-11-28T00:07:32.016Z,85.31
2018-11-28T00:12:34.489Z,84.45
2018-11-28T00:17:36.689Z,84.59
2018-11-28T00:22:38.861Z,84.56
2018-11-28T00:27:41.288Z,84.53
2018-11-28T00:32:43.457Z,84.83
2018-11-28T00:37:45.638Z,84.93
2018-11-28T00:42:47.792Z,84.72
2018-11-28T00:47:49.878Z,84.70
2018-11-28T00:52:51.972Z,84.61
2018-11-28T00:57:54.321Z,84.52
2018-11-28T01:02:56.586Z,84.81
2018-11-28T01:08:06.322Z,84.45
2018-11-28T01:13:08.635Z,84.45
2018-11-28T01:18:10.726Z,84.15
2018-11-28T01:23:12.756Z,84.02
2018-11-28T01:28:14.841Z,83.75
2018-11-28T01:33:16.850Z,83.36
2018-11-28T01:38:19.066Z,83.46
2018-11-28T01:43:21.459Z,82.99
2018-11-28T01:48:23.537Z,83.47
2018-11-28T01:53:25.539Z,83.44
2018-11-28T01:58:27.607Z,83.34
2018-11-28T02:03:29.663Z,83.10
2018-11-28T02:08:31.717Z,82.79
2018-11-28T02:13:34.030Z,82.93
2018-11-28T02:18:36.058Z,83.09
2018-11-28T02:23:38.331Z,83.06
2018-11-28T02:28:40.778Z,82.48
2018-11-28T02:33:43.418Z,82.64
2018-11-28T02:38:45.428Z,82.48
2018-11-28T02:43:47.733Z,82.54
2018-11-28T02:48:49.810Z,82.75
2018-11-28T02:53:52.150Z,82.97
2018-11-28T02:58:54.381Z,82.74
2018-11-28T03:03:56.459Z,82.67
2018-11-28T03:08:58.533Z,82.64
2018-11-28T03:14:00.595Z,82.40
2018-11-28T03:19:02.679Z,82.50
2018-11-28T03:24:05.251Z,82.42
2018-11-28T03:29:07.477Z,82.97
2018-11-28T03:34:09.625Z,83.04
2018-11-28T03:39:11.850Z,82.58
2018-11-28T03:44:14.082Z,82.63
2018-11-28T03:49:16.350Z,83.00
2018-11-28T03:54:18.389Z,82.69
2018-11-28T03:59:20.426Z,82.84
2018-11-28T04:04:22.481Z,83.48
2018-11-28T04:09:24.538Z,82.88
2018-11-28T04:14:26.591Z,83.06
2018-11-28T04:19:28.638Z,82.83
2018-11-28T04:24:30.793Z,83.24
2018-11-28T04:29:32.917Z,82.65
2018-11-28T04:34:35.259Z,82.37
2018-11-28T04:39:37.375Z,82.23
2018-11-28T04:44:39.438Z,82.27
2018-11-28T04:49:48.381Z,82.82
2018-11-28T04:54:57.344Z,82.70
2018-11-28T04:59:59.966Z,82.46
2018-11-28T05:05:02.019Z,82.91
2018-11-28T05:10:06.425Z,82.15
2018-11-28T05:15:10.719Z,82.30
2018-11-28T05:20:13.945Z,82.51
2018-11-28T05:25:19.650Z,82.48
2018-11-28T05:30:23.871Z,83.28
2018-11-28T05:35:30.610Z,82.83
2018-11-28T05:40:32.630Z,83.06
2018-11-28T05:45:34.766Z,83.02
2018-11-28T05:50:37.061Z,82.86
2018-11-28T05:55:39.101Z,82.81
2018-11-28T06:00:41.592Z,82.44
2018-11-28T06:05:43.646Z,82.82
2018-11-28T06:10:45.886Z,81.27
2018-11-28T06:15:47.937Z,81.17
2018-11-28T06:20:50.247Z,81.96
2018-11-28T06:25:52.427Z,81.94
2018-11-28T06:30:54.516Z,81.70
2018-11-28T06:35:56.616Z,81.35
2018-11-28T06:40:58.869Z,81.03
2018-11-28T06:46:00.963Z,80.42
2018-11-28T06:51:03.067Z,81.19
2018-11-28T06:56:12.394Z,81.47
2018-11-28T07:01:14.673Z,81.49
2018-11-28T07:06:16.705Z,81.56
2018-11-28T07:11:19.017Z,82.11
2018-11-28T07:16:21.093Z,81.85
2018-11-28T07:21:23.130Z,81.66
2018-11-28T07:26:25.166Z,81.76
2018-11-28T07:31:27.623Z,80.99
2018-11-28T07:36:29.666Z,81.63
2018-11-28T07:41:31.721Z,81.36
2018-11-28T07:46:33.761Z,81.81
2018-11-28T07:51:36.082Z,81.14
2018-11-28T07:56:38.118Z,81.14
2018-11-28T08:01:40.239Z,80.67
2018-11-28T08:06:42.289Z,80.84
2018-11-28T08:11:44.330Z,80.29
2018-11-28T08:16:46.408Z,79.36
2018-11-28T08:21:48.440Z,79.67
2018-11-28T08:26:50.834Z,79.92
2018-11-28T08:31:52.929Z,79.20
2018-11-28T08:36:54.981Z,78.75
2018-11-28T08:41:57.056Z,78.08
2018-11-28T08:46:59.094Z,78.12
2018-11-28T08:52:01.112Z,77.53
2018-11-28T08:57:03.193Z,76.96
2018-11-28T09:02:06.801Z,75.26
2018-11-28T09:07:08.840Z,74.25
2018-11-28T09:12:10.902Z,71.12
2018-11-28T09:17:15.266Z,71.26
2018-11-28T09:22:15.150Z,68.67
2018-11-28T09:27:17.207Z,67.60
2018-11-28T09:32:20.252Z,67.42
2018-11-28T09:37:23.037Z,66.02
2018-11-28T09:42:25.317Z,64.15
2018-11-28T09:47:27.359Z,63.04
2018-11-28T09:52:29.409Z,61.22
2018-11-28T09:57:31.481Z,59.56
2018-11-28T10:02:33.530Z,58.56
2018-11-28T10:07:35.602Z,57.04
2018-11-28T10:12:37.677Z,55.30
2018-11-28T10:17:39.871Z,54.90
2018-11-28T10:22:42.089Z,53.48
2018-11-28T10:27:46.237Z,53.54
2018-11-28T10:32:48.887Z,52.90
2018-11-28T10:37:51.014Z,50.72
2018-11-28T10:42:56.184Z,50.06
2018-11-28T10:47:58.621Z,50.04
2018-11-28T10:53:00.675Z,49.65
2018-11-28T10:58:04.527Z,49.06
2018-11-28T11:03:12.629Z,48.26
2018-11-28T11:08:20.366Z,48.03
2018-11-28T11:13:28.199Z,50.00
2018-11-28T11:18:30.288Z,48.47
2018-11-28T11:23:32.347Z,47.24
2018-11-28T11:28:34.751Z,48.09
2018-11-28T11:33:36.882Z,48.17
2018-11-28T11:38:39.137Z,47.71
2018-11-28T11:43:41.258Z,47.26
2018-11-28T11:48:43.363Z,49.27
2018-11-28T11:53:45.442Z,47.36
2018-11-28T11:58:47.478Z,46.62
2018-11-28T12:03:49.559Z,46.77
2018-11-28T12:08:51.833Z,48.26
2018-11-28T12:13:53.902Z,45.28
2018-11-28T12:18:55.947Z,46.04
2018-11-28T12:23:58.006Z,44.82
2018-11-28T12:29:00.095Z,45.50
2018-11-28T12:34:02.182Z,45.84
2018-11-28T12:39:08.170Z,44.91
2018-11-28T12:44:10.250Z,46.03
2018-11-28T12:49:12.571Z,45.72
2018-11-28T12:54:14.626Z,45.47
2018-11-28T12:59:16.670Z,45.88
2018-11-28T13:04:18.773Z,45.93
2018-11-28T13:09:20.810Z,47.40
2018-11-28T13:14:22.835Z,47.40
2018-11-28T13:19:24.857Z,47.98
2018-11-28T13:24:26.906Z,48.93
2018-11-28T13:29:29.789Z,48.07
2018-11-28T13:34:31.857Z,48.87
2018-11-28T13:39:34.258Z,48.96
2018-11-28T13:44:36.301Z,49.75
2018-11-28T13:49:38.317Z,49.01
2018-11-28T13:55:36.898Z,51.09
2018-11-28T13:59:42.581Z,51.77
2018-11-28T14:04:44.472Z,54.29
2018-11-28T14:09:46.542Z,56.57
2018-11-28T14:14:48.564Z,56.71
2018-11-28T14:19:50.619Z,58.43
2018-11-28T14:24:53.013Z,59.26
2018-11-28T14:29:55.211Z,58.54
2018-11-28T14:34:57.261Z,59.64
2018-11-28T14:39:59.646Z,59.08
2018-11-28T14:45:01.719Z,59.33
2018-11-28T14:50:06.461Z,60.07
2018-11-28T14:55:10.941Z,60.18
2018-11-28T15:00:14.824Z,60.54
2018-11-28T15:05:22.487Z,61.86
2018-11-28T15:10:39.814Z,62.34
2018-11-28T15:15:41.880Z,62.70
2018-11-28T15:20:44.160Z,64.00
2018-11-28T15:25:46.243Z,65.16
2018-11-28T15:30:48.355Z,65.44
2018-11-28T15:35:50.645Z,66.40
2018-11-28T15:40:53.025Z,66.88
2018-11-28T15:45:55.419Z,66.27
2018-11-28T15:50:57.471Z,67.28
2018-11-28T15:55:59.540Z,68.79
2018-11-28T16:01:01.753Z,69.82
2018-11-28T16:06:04.043Z,70.00
2018-11-28T16:11:08.588Z,69.74
2018-11-28T16:16:10.627Z,69.02
2018-11-28T16:21:12.724Z,69.14
2018-11-28T16:26:14.773Z,70.39
2018-11-28T16:31:17.646Z,70.81
2018-11-28T16:36:26.833Z,70.46
2018-11-28T16:41:29.185Z,69.38
2018-11-28T16:46:31.372Z,69.69
2018-11-28T16:51:33.381Z,70.05
2018-11-28T16:56:35.442Z,70.36
2018-11-28T17:01:37.739Z,69.64
2018-11-28T17:06:39.833Z,70.31
2018-11-28T17:11:41.861Z,70.29
2018-11-28T17:16:44.070Z,70.08
2018-11-28T17:21:46.134Z,70.94
2018-11-28T17:26:48.193Z,72.02
2018-11-28T17:31:50.289Z,72.44
2018-11-28T17:36:53.072Z,72.17
2018-11-28T17:41:55.149Z,71.73
2018-11-28T17:46:57.173Z,72.10
2018-11-28T17:51:59.217Z,71.43
2018-11-28T17:57:01.289Z,71.20
2018-11-28T18:02:03.365Z,70.80
2018-11-28T18:07:05.484Z,69.96
2018-11-28T18:12:07.621Z,69.58
2018-11-28T18:17:09.637Z,69.85
2018-11-28T18:22:11.685Z,69.59
2018-11-28T18:27:13.747Z,69.12
2018-11-28T18:32:15.914Z,69.11
2018-11-28T18:37:18.125Z,69.53
2018-11-28T18:42:20.601Z,68.99
2018-11-28T18:47:22.642Z,69.69
2018-11-28T18:52:24.674Z,69.53
2018-11-28T18:57:26.749Z,69.22
2018-11-28T19:02:28.789Z,68.94
2018-11-28T19:07:30.822Z,67.53
2018-11-28T19:12:33.350Z,67.64
2018-11-28T19:17:35.414Z,67.58
2018-11-28T19:22:37.409Z,67.64
2018-11-28T19:27:39.542Z,67.84
2018-11-28T19:32:41.616Z,68.79
2018-11-28T19:37:43.677Z,68.91
2018-11-28T19:42:45.782Z,69.47
2018-11-28T19:47:47.821Z,69.31
2018-11-28T19:52:50.022Z,69.12
2018-11-28T19:58:06.741Z,69.82
2018-11-28T20:03:11.465Z,68.93
2018-11-28T20:08:14.439Z,69.63
2018-11-28T20:13:16.667Z,69.58
2018-11-28T20:18:18.774Z,69.61
2018-11-28T20:23:20.805Z,69.56
2018-11-28T20:28:23.357Z,69.93
2018-11-28T20:33:25.779Z,70.46
2018-11-28T20:38:30.931Z,71.42
2018-11-28T20:43:33.035Z,72.01
2018-11-28T20:48:35.855Z,72.00
2018-11-28T20:53:38.245Z,72.43
2018-11-28T20:58:40.319Z,72.92
2018-11-28T21:03:42.874Z,71.73
2018-11-28T21:08:45.006Z,70.74
2018-11-28T21:13:47.028Z,71.02
2018-11-28T21:18:50.018Z,70.88
2018-11-28T21:23:52.100Z,70.77
2018-11-28T21:28:54.486Z,70.75
2018-11-28T21:33:56.534Z,69.90
2018-11-28T21:38:58.862Z,69.97
2018-11-28T21:44:00.930Z,69.22
2018-11-28T21:49:03.417Z,69.28
2018-11-28T21:54:05.525Z,69.37
2018-11-28T21:59:07.578Z,68.67
2018-11-28T22:04:09.586Z,69.60
2018-11-28T22:09:11.868Z,70.04
2018-11-28T22:14:14.251Z,70.36
2018-11-28T22:19:16.305Z,70.60
2018-11-28T22:24:18.821Z,70.78
2018-11-28T22:29:21.211Z,70.71
2018-11-28T22:34:23.260Z,69.95
2018-11-28T22:39:25.296Z,69.48
2018-11-28T22:44:28.218Z,69.24
2018-11-28T22:49:30.269Z,68.94
2018-11-28T22:54:32.330Z,68.57
2018-11-28T22:59:34.368Z,69.02
2018-11-28T23:04:36.410Z,69.18
2018-11-28T23:09:38.494Z,69.33
2018-11-28T23:14:40.606Z,69.77
2018-11-28T23:19:42.652Z,70.02
2018-11-28T23:24:45.662Z,69.39
2018-11-28T23:29:47.726Z,69.11
2018-11-28T23:34:49.872Z,68.91
2018-11-28T23:39:52.013Z,69.12
2018-11-28T23:44:54.097Z,68.47
2018-11-28T23:49:56.131Z,69.24
2018-11-28T23:54:58.206Z,69.90
